sensor_id;sensor_type;location;lat;lon;timestamp;P1;durP1;ratioP1;P2;durP2;ratioP2
19193;SDS011;9729;52.296;13.260;2024-03-06T00:01:56;43.43;;;23.30;;
19193;SDS011;9729;52.296;13.260;2024-03-06T00:04:23;42.90;;;26.03;;
19193;SDS011;9729;52.296;13.260;2024-03-06T00:06:49;45.47;;;23.07;;
19193;SDS011;9729;52.296;13.260;2024-03-06T00:09:17;41.20;;;23.33;;
19193;SDS011;9729;52.296;13.260;2024-03-06T00:11:43;37.23;;;21.50;;
19193;SDS011;9729;52.296;13.260;2024-03-06T00:14:11;40.63;;;23.33;;
19193;SDS011;9729;52.296;13.260;2024-03-06T00:16:38;42.13;;;22.03;;
19193;SDS011;9729;52.296;13.260;2024-03-06T00:19:04;47.67;;;24.40;;
19193;SDS011;9729;52.296;13.260;2024-03-06T00:21:31;42.70;;;24.00;;
19193;SDS011;9729;52.296;13.260;2024-03-06T00:23:57;43.60;;;21.10;;
19193;SDS011;9729;52.296;13.260;2024-03-06T00:26:23;38.80;;;22.63;;
19193;SDS011;9729;52.296;13.260;2024-03-06T00:28:50;54.37;;;23.93;;
19193;SDS011;9729;52.296;13.260;2024-03-06T00:31:17;47.23;;;23.90;;
19193;SDS011;9729;52.296;13.260;2024-03-06T00:33:44;41.03;;;21.17;;
19193;SDS011;9729;52.296;13.260;2024-03-06T00:36:10;42.73;;;22.83;;
19193;SDS011;9729;52.296;13.260;2024-03-06T00:38:36;45.70;;;24.30;;
19193;SDS011;9729;52.296;13.260;2024-03-06T00:41:03;45.07;;;24.80;;
19193;SDS011;9729;52.296;13.260;2024-03-06T00:43:29;49.63;;;25.73;;
19193;SDS011;9729;52.296;13.260;2024-03-06T00:45:56;48.77;;;25.87;;
19193;SDS011;9729;52.296;13.260;2024-03-06T00:48:23;47.20;;;23.53;;
19193;SDS011;9729;52.296;13.260;2024-03-06T00:50:50;46.47;;;22.43;;
19193;SDS011;9729;52.296;13.260;2024-03-06T00:53:17;52.50;;;25.00;;
19193;SDS011;9729;52.296;13.260;2024-03-06T00:55:43;47.83;;;24.10;;
19193;SDS011;9729;52.296;13.260;2024-03-06T00:58:09;41.87;;;22.63;;
19193;SDS011;9729;52.296;13.260;2024-03-06T01:00:36;47.33;;;24.50;;
19193;SDS011;9729;52.296;13.260;2024-03-06T01:03:03;50.90;;;25.17;;
19193;SDS011;9729;52.296;13.260;2024-03-06T01:05:31;43.07;;;23.80;;
19193;SDS011;9729;52.296;13.260;2024-03-06T01:07:57;43.63;;;23.80;;
19193;SDS011;9729;52.296;13.260;2024-03-06T01:10:24;38.73;;;23.97;;
19193;SDS011;9729;52.296;13.260;2024-03-06T01:12:50;48.33;;;25.90;;
19193;SDS011;9729;52.296;13.260;2024-03-06T01:15:17;46.47;;;25.40;;
19193;SDS011;9729;52.296;13.260;2024-03-06T01:17:43;54.93;;;26.93;;
19193;SDS011;9729;52.296;13.260;2024-03-06T01:20:10;50.03;;;24.27;;
19193;SDS011;9729;52.296;13.260;2024-03-06T01:22:38;50.90;;;25.20;;
19193;SDS011;9729;52.296;13.260;2024-03-06T01:25:05;41.57;;;23.60;;
19193;SDS011;9729;52.296;13.260;2024-03-06T01:27:32;46.33;;;22.87;;
19193;SDS011;9729;52.296;13.260;2024-03-06T01:29:58;43.50;;;23.13;;
19193;SDS011;9729;52.296;13.260;2024-03-06T01:32:24;45.03;;;24.27;;
19193;SDS011;9729;52.296;13.260;2024-03-06T01:34:51;46.37;;;23.97;;
19193;SDS011;9729;52.296;13.260;2024-03-06T01:37:17;46.97;;;23.40;;
19193;SDS011;9729;52.296;13.260;2024-03-06T01:39:45;45.97;;;23.63;;
19193;SDS011;9729;52.296;13.260;2024-03-06T01:42:11;46.90;;;24.27;;
19193;SDS011;9729;52.296;13.260;2024-03-06T01:44:37;38.50;;;22.53;;
19193;SDS011;9729;52.296;13.260;2024-03-06T01:47:04;44.17;;;24.07;;
19193;SDS011;9729;52.296;13.260;2024-03-06T01:49:31;50.43;;;24.73;;
19193;SDS011;9729;52.296;13.260;2024-03-06T01:51:58;44.17;;;24.33;;
19193;SDS011;9729;52.296;13.260;2024-03-06T01:54:25;42.00;;;22.97;;
19193;SDS011;9729;52.296;13.260;2024-03-06T01:56:52;46.67;;;24.27;;
19193;SDS011;9729;52.296;13.260;2024-03-06T01:59:21;46.50;;;22.83;;
19193;SDS011;9729;52.296;13.260;2024-03-06T02:01:50;46.33;;;24.60;;
19193;SDS011;9729;52.296;13.260;2024-03-06T02:04:18;47.93;;;24.17;;
19193;SDS011;9729;52.296;13.260;2024-03-06T02:06:45;56.20;;;25.30;;
19193;SDS011;9729;52.296;13.260;2024-03-06T02:09:11;44.57;;;23.10;;
19193;SDS011;9729;52.296;13.260;2024-03-06T02:11:39;42.67;;;22.97;;
19193;SDS011;9729;52.296;13.260;2024-03-06T02:14:06;46.20;;;23.70;;
19193;SDS011;9729;52.296;13.260;2024-03-06T02:16:34;45.60;;;22.87;;
19193;SDS011;9729;52.296;13.260;2024-03-06T02:19:01;47.67;;;24.87;;
19193;SDS011;9729;52.296;13.260;2024-03-06T02:21:29;45.13;;;23.63;;
19193;SDS011;9729;52.296;13.260;2024-03-06T02:23:56;45.97;;;23.40;;
19193;SDS011;9729;52.296;13.260;2024-03-06T02:26:22;47.03;;;23.47;;
19193;SDS011;9729;52.296;13.260;2024-03-06T02:28:49;39.87;;;21.80;;
19193;SDS011;9729;52.296;13.260;2024-03-06T02:31:15;50.40;;;25.07;;
19193;SDS011;9729;52.296;13.260;2024-03-06T02:33:42;48.23;;;24.00;;
19193;SDS011;9729;52.296;13.260;2024-03-06T02:36:09;50.30;;;25.73;;
19193;SDS011;9729;52.296;13.260;2024-03-06T02:38:37;47.30;;;23.17;;
19193;SDS011;9729;52.296;13.260;2024-03-06T02:41:03;43.60;;;22.07;;
19193;SDS011;9729;52.296;13.260;2024-03-06T02:43:31;44.10;;;23.90;;
19193;SDS011;9729;52.296;13.260;2024-03-06T02:45:58;44.13;;;22.77;;
19193;SDS011;9729;52.296;13.260;2024-03-06T02:48:24;40.73;;;21.60;;
19193;SDS011;9729;52.296;13.260;2024-03-06T02:50:51;43.10;;;22.73;;
19193;SDS011;9729;52.296;13.260;2024-03-06T02:53:17;43.90;;;23.23;;
19193;SDS011;9729;52.296;13.260;2024-03-06T02:55:45;46.33;;;24.00;;
19193;SDS011;9729;52.296;13.260;2024-03-06T02:58:11;45.90;;;22.97;;
19193;SDS011;9729;52.296;13.260;2024-03-06T03:00:39;38.83;;;20.83;;
19193;SDS011;9729;52.296;13.260;2024-03-06T03:03:05;46.40;;;23.23;;
19193;SDS011;9729;52.296;13.260;2024-03-06T03:05:31;43.53;;;23.80;;
19193;SDS011;9729;52.296;13.260;2024-03-06T03:07:58;51.83;;;23.50;;
19193;SDS011;9729;52.296;13.260;2024-03-06T03:10:24;43.20;;;22.33;;
19193;SDS011;9729;52.296;13.260;2024-03-06T03:12:52;48.83;;;22.13;;
19193;SDS011;9729;52.296;13.260;2024-03-06T03:15:19;45.63;;;23.03;;
19193;SDS011;9729;52.296;13.260;2024-03-06T03:17:46;43.33;;;22.13;;
19193;SDS011;9729;52.296;13.260;2024-03-06T03:20:12;45.63;;;23.10;;
19193;SDS011;9729;52.296;13.260;2024-03-06T03:22:41;42.23;;;21.83;;
19193;SDS011;9729;52.296;13.260;2024-03-06T03:25:08;42.73;;;21.13;;
19193;SDS011;9729;52.296;13.260;2024-03-06T03:27:36;40.90;;;20.93;;
19193;SDS011;9729;52.296;13.260;2024-03-06T03:30:04;43.37;;;23.73;;
19193;SDS011;9729;52.296;13.260;2024-03-06T03:32:35;42.27;;;22.10;;
19193;SDS011;9729;52.296;13.260;2024-03-06T03:35:01;42.57;;;23.23;;
19193;SDS011;9729;52.296;13.260;2024-03-06T03:37:27;43.73;;;21.73;;
19193;SDS011;9729;52.296;13.260;2024-03-06T03:39:54;40.30;;;22.07;;
19193;SDS011;9729;52.296;13.260;2024-03-06T03:42:20;39.30;;;21.57;;
19193;SDS011;9729;52.296;13.260;2024-03-06T03:44:46;44.63;;;24.77;;
19193;SDS011;9729;52.296;13.260;2024-03-06T03:47:14;36.77;;;21.97;;
19193;SDS011;9729;52.296;13.260;2024-03-06T03:49:40;48.30;;;21.90;;
19193;SDS011;9729;52.296;13.260;2024-03-06T03:52:07;38.77;;;22.00;;
19193;SDS011;9729;52.296;13.260;2024-03-06T03:54:34;40.87;;;22.80;;
19193;SDS011;9729;52.296;13.260;2024-03-06T03:57:00;40.27;;;22.73;;
19193;SDS011;9729;52.296;13.260;2024-03-06T03:59:27;47.10;;;21.60;;
19193;SDS011;9729;52.296;13.260;2024-03-06T04:01:53;42.90;;;23.10;;
19193;SDS011;9729;52.296;13.260;2024-03-06T04:04:23;45.63;;;23.10;;
19193;SDS011;9729;52.296;13.260;2024-03-06T04:06:49;49.33;;;23.23;;
19193;SDS011;9729;52.296;13.260;2024-03-06T04:09:16;36.03;;;20.07;;
19193;SDS011;9729;52.296;13.260;2024-03-06T04:11:42;43.43;;;22.90;;
19193;SDS011;9729;52.296;13.260;2024-03-06T04:14:09;40.70;;;21.47;;
19193;SDS011;9729;52.296;13.260;2024-03-06T04:16:35;39.93;;;22.53;;
19193;SDS011;9729;52.296;13.260;2024-03-06T04:19:03;41.83;;;21.87;;
19193;SDS011;9729;52.296;13.260;2024-03-06T04:21:31;49.20;;;24.17;;
19193;SDS011;9729;52.296;13.260;2024-03-06T04:23:57;39.27;;;21.80;;
19193;SDS011;9729;52.296;13.260;2024-03-06T04:26:23;43.13;;;22.67;;
19193;SDS011;9729;52.296;13.260;2024-03-06T04:28:50;41.27;;;21.33;;
19193;SDS011;9729;52.296;13.260;2024-03-06T04:31:16;37.37;;;21.33;;
19193;SDS011;9729;52.296;13.260;2024-03-06T04:33:42;44.97;;;21.83;;
19193;SDS011;9729;52.296;13.260;2024-03-06T04:36:09;43.53;;;22.60;;
19193;SDS011;9729;52.296;13.260;2024-03-06T04:38:37;44.63;;;24.07;;
19193;SDS011;9729;52.296;13.260;2024-03-06T04:41:05;44.97;;;21.23;;
19193;SDS011;9729;52.296;13.260;2024-03-06T04:43:31;43.17;;;22.23;;
19193;SDS011;9729;52.296;13.260;2024-03-06T04:45:58;40.87;;;21.70;;
19193;SDS011;9729;52.296;13.260;2024-03-06T04:48:24;42.73;;;21.60;;
19193;SDS011;9729;52.296;13.260;2024-03-06T04:50:50;38.77;;;21.67;;
19193;SDS011;9729;52.296;13.260;2024-03-06T04:53:18;39.17;;;21.53;;
19193;SDS011;9729;52.296;13.260;2024-03-06T04:55:46;41.73;;;22.53;;
19193;SDS011;9729;52.296;13.260;2024-03-06T04:58:13;35.80;;;20.97;;
19193;SDS011;9729;52.296;13.260;2024-03-06T05:00:39;42.07;;;22.30;;
19193;SDS011;9729;52.296;13.260;2024-03-06T05:03:05;37.53;;;21.03;;
19193;SDS011;9729;52.296;13.260;2024-03-06T05:05:32;42.57;;;22.57;;
19193;SDS011;9729;52.296;13.260;2024-03-06T05:07:58;40.27;;;23.50;;
19193;SDS011;9729;52.296;13.260;2024-03-06T05:10:24;42.90;;;21.03;;
19193;SDS011;9729;52.296;13.260;2024-03-06T05:12:53;43.73;;;22.50;;
19193;SDS011;9729;52.296;13.260;2024-03-06T05:15:20;43.80;;;22.13;;
19193;SDS011;9729;52.296;13.260;2024-03-06T05:17:46;44.00;;;21.33;;
19193;SDS011;9729;52.296;13.260;2024-03-06T05:20:12;44.40;;;22.63;;
19193;SDS011;9729;52.296;13.260;2024-03-06T05:22:39;35.40;;;21.37;;
19193;SDS011;9729;52.296;13.260;2024-03-06T05:25:05;40.83;;;20.60;;
19193;SDS011;9729;52.296;13.260;2024-03-06T05:27:32;44.83;;;22.97;;
19193;SDS011;9729;52.296;13.260;2024-03-06T05:30:00;40.83;;;21.70;;
19193;SDS011;9729;52.296;13.260;2024-03-06T05:32:26;46.77;;;24.20;;
19193;SDS011;9729;52.296;13.260;2024-03-06T05:34:52;40.23;;;22.83;;
19193;SDS011;9729;52.296;13.260;2024-03-06T05:37:19;47.93;;;24.37;;
19193;SDS011;9729;52.296;13.260;2024-03-06T05:39:45;42.17;;;22.90;;
19193;SDS011;9729;52.296;13.260;2024-03-06T05:42:12;46.33;;;23.30;;
19193;SDS011;9729;52.296;13.260;2024-03-06T05:44:38;48.33;;;24.00;;
19193;SDS011;9729;52.296;13.260;2024-03-06T05:47:07;53.73;;;24.47;;
19193;SDS011;9729;52.296;13.260;2024-03-06T05:49:33;40.73;;;23.17;;
19193;SDS011;9729;52.296;13.260;2024-03-06T05:51:59;49.30;;;22.47;;
19193;SDS011;9729;52.296;13.260;2024-03-06T05:54:26;55.60;;;23.80;;
19193;SDS011;9729;52.296;13.260;2024-03-06T05:56:52;51.97;;;22.67;;
19193;SDS011;9729;52.296;13.260;2024-03-06T05:59:19;51.13;;;24.03;;
19193;SDS011;9729;52.296;13.260;2024-03-06T06:01:46;61.57;;;25.07;;
19193;SDS011;9729;52.296;13.260;2024-03-06T06:04:13;50.67;;;24.47;;
19193;SDS011;9729;52.296;13.260;2024-03-06T06:06:40;40.60;;;21.43;;
19193;SDS011;9729;52.296;13.260;2024-03-06T06:09:06;46.30;;;23.73;;
19193;SDS011;9729;52.296;13.260;2024-03-06T06:11:37;54.97;;;23.00;;
19193;SDS011;9729;52.296;13.260;2024-03-06T06:14:04;59.53;;;23.90;;
19193;SDS011;9729;52.296;13.260;2024-03-06T06:16:34;45.40;;;23.57;;
19193;SDS011;9729;52.296;13.260;2024-03-06T06:19:01;50.67;;;24.87;;
19193;SDS011;9729;52.296;13.260;2024-03-06T06:21:28;51.13;;;24.90;;
19193;SDS011;9729;52.296;13.260;2024-03-06T06:23:55;47.67;;;21.90;;
19193;SDS011;9729;52.296;13.260;2024-03-06T06:26:21;45.60;;;23.20;;
19193;SDS011;9729;52.296;13.260;2024-03-06T06:28:47;44.83;;;22.83;;
19193;SDS011;9729;52.296;13.260;2024-03-06T06:31:13;81.73;;;25.80;;
19193;SDS011;9729;52.296;13.260;2024-03-06T06:33:40;50.60;;;25.90;;
19193;SDS011;9729;52.296;13.260;2024-03-06T06:36:07;52.87;;;26.47;;
19193;SDS011;9729;52.296;13.260;2024-03-06T06:38:34;62.00;;;26.23;;
19193;SDS011;9729;52.296;13.260;2024-03-06T06:41:00;54.73;;;26.90;;
19193;SDS011;9729;52.296;13.260;2024-03-06T06:43:27;55.83;;;28.40;;
19193;SDS011;9729;52.296;13.260;2024-03-06T06:45:54;55.97;;;28.03;;
19193;SDS011;9729;52.296;13.260;2024-03-06T06:48:20;54.27;;;26.80;;
19193;SDS011;9729;52.296;13.260;2024-03-06T06:50:49;59.00;;;26.33;;
19193;SDS011;9729;52.296;13.260;2024-03-06T06:53:16;50.40;;;26.30;;
19193;SDS011;9729;52.296;13.260;2024-03-06T06:55:44;60.80;;;26.53;;
19193;SDS011;9729;52.296;13.260;2024-03-06T06:58:10;53.57;;;28.40;;
19193;SDS011;9729;52.296;13.260;2024-03-06T07:00:36;49.60;;;26.70;;
19193;SDS011;9729;52.296;13.260;2024-03-06T07:03:03;57.30;;;27.17;;
19193;SDS011;9729;52.296;13.260;2024-03-06T07:05:29;46.67;;;25.73;;
19193;SDS011;9729;52.296;13.260;2024-03-06T07:07:56;55.43;;;28.23;;
19193;SDS011;9729;52.296;13.260;2024-03-06T07:10:22;50.90;;;26.83;;
19193;SDS011;9729;52.296;13.260;2024-03-06T07:12:50;54.03;;;28.10;;
19193;SDS011;9729;52.296;13.260;2024-03-06T07:15:16;53.23;;;27.73;;
19193;SDS011;9729;52.296;13.260;2024-03-06T07:17:43;47.07;;;26.37;;
19193;SDS011;9729;52.296;13.260;2024-03-06T07:20:09;55.93;;;29.70;;
19193;SDS011;9729;52.296;13.260;2024-03-06T07:22:36;49.33;;;28.93;;
19193;SDS011;9729;52.296;13.260;2024-03-06T07:25:03;48.13;;;27.93;;
19193;SDS011;9729;52.296;13.260;2024-03-06T07:27:30;48.43;;;25.53;;
19193;SDS011;9729;52.296;13.260;2024-03-06T07:29:58;51.60;;;27.63;;
19193;SDS011;9729;52.296;13.260;2024-03-06T07:32:24;56.60;;;28.73;;
19193;SDS011;9729;52.296;13.260;2024-03-06T07:34:51;49.63;;;27.67;;
19193;SDS011;9729;52.296;13.260;2024-03-06T07:37:17;54.10;;;27.73;;
19193;SDS011;9729;52.296;13.260;2024-03-06T07:39:44;68.93;;;29.03;;
19193;SDS011;9729;52.296;13.260;2024-03-06T07:42:10;57.33;;;30.57;;
19193;SDS011;9729;52.296;13.260;2024-03-06T07:44:37;48.67;;;27.40;;
19193;SDS011;9729;52.296;13.260;2024-03-06T07:47:05;54.97;;;27.87;;
19193;SDS011;9729;52.296;13.260;2024-03-06T07:49:32;57.93;;;30.77;;
19193;SDS011;9729;52.296;13.260;2024-03-06T07:51:59;54.60;;;29.20;;
19193;SDS011;9729;52.296;13.260;2024-03-06T07:54:26;51.73;;;28.40;;
19193;SDS011;9729;52.296;13.260;2024-03-06T07:56:52;58.03;;;28.97;;
19193;SDS011;9729;52.296;13.260;2024-03-06T07:59:19;50.17;;;29.03;;
19193;SDS011;9729;52.296;13.260;2024-03-06T08:01:45;61.13;;;29.50;;
19193;SDS011;9729;52.296;13.260;2024-03-06T08:04:14;53.07;;;27.73;;
19193;SDS011;9729;52.296;13.260;2024-03-06T08:06:40;51.67;;;29.77;;
19193;SDS011;9729;52.296;13.260;2024-03-06T08:09:06;54.83;;;29.10;;
19193;SDS011;9729;52.296;13.260;2024-03-06T08:11:33;50.80;;;29.27;;
19193;SDS011;9729;52.296;13.260;2024-03-06T08:13:59;51.40;;;27.80;;
19193;SDS011;9729;52.296;13.260;2024-03-06T08:16:27;46.03;;;26.50;;
19193;SDS011;9729;52.296;13.260;2024-03-06T08:18:53;48.83;;;26.47;;
19193;SDS011;9729;52.296;13.260;2024-03-06T08:21:22;52.57;;;28.40;;
19193;SDS011;9729;52.296;13.260;2024-03-06T08:23:48;42.30;;;25.00;;
19193;SDS011;9729;52.296;13.260;2024-03-06T08:26:15;46.40;;;26.57;;
19193;SDS011;9729;52.296;13.260;2024-03-06T08:28:41;50.97;;;27.30;;
19193;SDS011;9729;52.296;13.260;2024-03-06T08:31:07;44.47;;;25.30;;
19193;SDS011;9729;52.296;13.260;2024-03-06T08:33:34;49.03;;;26.37;;
19193;SDS011;9729;52.296;13.260;2024-03-06T08:36:00;49.60;;;27.73;;
19193;SDS011;9729;52.296;13.260;2024-03-06T08:38:28;57.53;;;28.37;;
19193;SDS011;9729;52.296;13.260;2024-03-06T08:40:55;51.40;;;27.67;;
19193;SDS011;9729;52.296;13.260;2024-03-06T08:43:21;51.03;;;27.67;;
19193;SDS011;9729;52.296;13.260;2024-03-06T08:45:47;53.07;;;29.47;;
19193;SDS011;9729;52.296;13.260;2024-03-06T08:48:14;47.07;;;27.37;;
19193;SDS011;9729;52.296;13.260;2024-03-06T08:50:40;51.87;;;27.60;;
19193;SDS011;9729;52.296;13.260;2024-03-06T08:53:06;47.10;;;27.50;;
19193;SDS011;9729;52.296;13.260;2024-03-06T08:55:35;43.47;;;25.77;;
19193;SDS011;9729;52.296;13.260;2024-03-06T08:58:02;46.83;;;26.80;;
19193;SDS011;9729;52.296;13.260;2024-03-06T09:00:28;40.63;;;23.67;;
19193;SDS011;9729;52.296;13.260;2024-03-06T09:02:54;42.43;;;24.00;;
19193;SDS011;9729;52.296;13.260;2024-03-06T09:05:21;37.97;;;23.23;;
19193;SDS011;9729;52.296;13.260;2024-03-06T09:07:47;40.47;;;24.30;;
19193;SDS011;9729;52.296;13.260;2024-03-06T09:10:13;41.73;;;24.37;;
19193;SDS011;9729;52.296;13.260;2024-03-06T09:12:41;46.43;;;25.70;;
19193;SDS011;9729;52.296;13.260;2024-03-06T09:15:07;48.03;;;25.27;;
19193;SDS011;9729;52.296;13.260;2024-03-06T09:17:35;45.67;;;24.17;;
19193;SDS011;9729;52.296;13.260;2024-03-06T09:20:01;44.83;;;25.80;;
19193;SDS011;9729;52.296;13.260;2024-03-06T09:22:34;46.53;;;25.73;;
19193;SDS011;9729;52.296;13.260;2024-03-06T09:25:01;48.80;;;26.70;;
19193;SDS011;9729;52.296;13.260;2024-03-06T09:27:28;49.27;;;26.23;;
19193;SDS011;9729;52.296;13.260;2024-03-06T09:29:55;52.83;;;28.57;;
19193;SDS011;9729;52.296;13.260;2024-03-06T09:32:22;50.97;;;26.97;;
19193;SDS011;9729;52.296;13.260;2024-03-06T09:34:48;54.57;;;29.10;;
19193;SDS011;9729;52.296;13.260;2024-03-06T09:37:15;49.63;;;26.70;;
19193;SDS011;9729;52.296;13.260;2024-03-06T09:39:41;41.83;;;25.33;;
19193;SDS011;9729;52.296;13.260;2024-03-06T09:42:07;51.93;;;27.63;;
19193;SDS011;9729;52.296;13.260;2024-03-06T09:44:34;57.57;;;26.03;;
19193;SDS011;9729;52.296;13.260;2024-03-06T09:47:02;49.10;;;25.97;;
19193;SDS011;9729;52.296;13.260;2024-03-06T09:49:29;48.67;;;27.23;;
19193;SDS011;9729;52.296;13.260;2024-03-06T09:51:56;47.90;;;26.90;;
19193;SDS011;9729;52.296;13.260;2024-03-06T09:54:23;50.73;;;26.87;;
19193;SDS011;9729;52.296;13.260;2024-03-06T09:56:51;51.77;;;26.33;;
19193;SDS011;9729;52.296;13.260;2024-03-06T09:59:20;50.37;;;25.27;;
19193;SDS011;9729;52.296;13.260;2024-03-06T10:01:48;52.13;;;26.97;;
19193;SDS011;9729;52.296;13.260;2024-03-06T10:04:20;51.77;;;26.90;;
19193;SDS011;9729;52.296;13.260;2024-03-06T10:06:47;42.20;;;22.73;;
19193;SDS011;9729;52.296;13.260;2024-03-06T10:09:16;42.27;;;24.37;;
19193;SDS011;9729;52.296;13.260;2024-03-06T10:11:43;38.93;;;23.43;;
19193;SDS011;9729;52.296;13.260;2024-03-06T10:14:09;44.13;;;24.07;;
19193;SDS011;9729;52.296;13.260;2024-03-06T10:16:36;41.80;;;23.87;;
19193;SDS011;9729;52.296;13.260;2024-03-06T10:19:14;39.63;;;22.60;;
19193;SDS011;9729;52.296;13.260;2024-03-06T10:21:43;41.70;;;22.13;;
19193;SDS011;9729;52.296;13.260;2024-03-06T10:24:10;46.40;;;25.10;;
19193;SDS011;9729;52.296;13.260;2024-03-06T10:26:37;38.83;;;23.10;;
19193;SDS011;9729;52.296;13.260;2024-03-06T10:29:03;38.87;;;22.97;;
19193;SDS011;9729;52.296;13.260;2024-03-06T10:31:30;40.50;;;22.40;;
19193;SDS011;9729;52.296;13.260;2024-03-06T10:33:56;31.47;;;18.87;;
19193;SDS011;9729;52.296;13.260;2024-03-06T10:36:25;36.50;;;21.07;;
19193;SDS011;9729;52.296;13.260;2024-03-06T10:38:53;32.90;;;20.17;;
19193;SDS011;9729;52.296;13.260;2024-03-06T10:41:21;36.20;;;20.50;;
19193;SDS011;9729;52.296;13.260;2024-03-06T10:43:50;35.30;;;20.30;;
19193;SDS011;9729;52.296;13.260;2024-03-06T10:46:19;34.77;;;19.87;;
19193;SDS011;9729;52.296;13.260;2024-03-06T10:48:46;32.47;;;20.07;;
19193;SDS011;9729;52.296;13.260;2024-03-06T10:51:15;27.07;;;18.87;;
19193;SDS011;9729;52.296;13.260;2024-03-06T10:53:42;32.93;;;19.70;;
19193;SDS011;9729;52.296;13.260;2024-03-06T10:56:10;38.13;;;23.93;;
19193;SDS011;9729;52.296;13.260;2024-03-06T10:58:38;32.00;;;21.47;;
19193;SDS011;9729;52.296;13.260;2024-03-06T11:01:06;34.97;;;20.00;;
19193;SDS011;9729;52.296;13.260;2024-03-06T11:03:32;31.93;;;20.37;;
19193;SDS011;9729;52.296;13.260;2024-03-06T11:06:00;28.87;;;18.80;;
19193;SDS011;9729;52.296;13.260;2024-03-06T11:08:28;24.90;;;17.00;;
19193;SDS011;9729;52.296;13.260;2024-03-06T11:13:46;34.10;;;16.57;;
19193;SDS011;9729;52.296;13.260;2024-03-06T11:16:12;23.00;;;14.67;;
19193;SDS011;9729;52.296;13.260;2024-03-06T11:18:42;25.30;;;14.13;;
19193;SDS011;9729;52.296;13.260;2024-03-06T11:21:28;19.07;;;13.27;;
19193;SDS011;9729;52.296;13.260;2024-03-06T11:24:13;16.43;;;11.73;;
19193;SDS011;9729;52.296;13.260;2024-03-06T11:26:46;20.60;;;11.93;;
19193;SDS011;9729;52.296;13.260;2024-03-06T11:29:17;18.07;;;10.80;;
19193;SDS011;9729;52.296;13.260;2024-03-06T11:32:00;21.20;;;11.30;;
19193;SDS011;9729;52.296;13.260;2024-03-06T11:34:32;16.20;;;10.77;;
19193;SDS011;9729;52.296;13.260;2024-03-06T11:36:59;18.27;;;12.43;;
19193;SDS011;9729;52.296;13.260;2024-03-06T11:39:28;16.70;;;12.50;;
19193;SDS011;9729;52.296;13.260;2024-03-06T11:41:56;15.43;;;11.17;;
19193;SDS011;9729;52.296;13.260;2024-03-06T11:44:23;15.47;;;11.87;;
19193;SDS011;9729;52.296;13.260;2024-03-06T11:46:50;14.77;;;11.30;;
19193;SDS011;9729;52.296;13.260;2024-03-06T11:49:24;17.50;;;11.60;;
19193;SDS011;9729;52.296;13.260;2024-03-06T11:51:51;16.97;;;11.70;;
19193;SDS011;9729;52.296;13.260;2024-03-06T11:54:19;16.10;;;11.90;;
19193;SDS011;9729;52.296;13.260;2024-03-06T11:56:48;19.87;;;12.37;;
19193;SDS011;9729;52.296;13.260;2024-03-06T11:59:17;20.93;;;14.20;;
19193;SDS011;9729;52.296;13.260;2024-03-06T12:01:44;19.77;;;13.53;;
19193;SDS011;9729;52.296;13.260;2024-03-06T12:04:10;22.50;;;13.67;;
19193;SDS011;9729;52.296;13.260;2024-03-06T12:06:36;18.43;;;13.07;;
19193;SDS011;9729;52.296;13.260;2024-03-06T12:09:04;16.03;;;12.03;;
19193;SDS011;9729;52.296;13.260;2024-03-06T12:11:30;16.37;;;12.03;;
19193;SDS011;9729;52.296;13.260;2024-03-06T12:13:57;19.10;;;12.40;;
19193;SDS011;9729;52.296;13.260;2024-03-06T12:16:24;14.97;;;11.57;;
19193;SDS011;9729;52.296;13.260;2024-03-06T12:18:54;16.13;;;11.53;;
19193;SDS011;9729;52.296;13.260;2024-03-06T12:21:22;15.50;;;12.40;;
19193;SDS011;9729;52.296;13.260;2024-03-06T12:23:49;15.80;;;11.00;;
19193;SDS011;9729;52.296;13.260;2024-03-06T12:26:15;18.57;;;11.40;;
19193;SDS011;9729;52.296;13.260;2024-03-06T12:28:41;17.00;;;11.30;;
19193;SDS011;9729;52.296;13.260;2024-03-06T12:31:08;14.67;;;10.33;;
19193;SDS011;9729;52.296;13.260;2024-03-06T12:33:35;14.33;;;10.00;;
19193;SDS011;9729;52.296;13.260;2024-03-06T12:36:02;14.03;;;10.03;;
19193;SDS011;9729;52.296;13.260;2024-03-06T12:38:30;13.10;;;10.40;;
19193;SDS011;9729;52.296;13.260;2024-03-06T12:40:56;12.17;;;9.53;;
19193;SDS011;9729;52.296;13.260;2024-03-06T12:43:23;15.53;;;10.77;;
19193;SDS011;9729;52.296;13.260;2024-03-06T12:45:50;14.30;;;9.30;;
19193;SDS011;9729;52.296;13.260;2024-03-06T12:48:19;16.20;;;10.20;;
19193;SDS011;9729;52.296;13.260;2024-03-06T12:50:47;14.20;;;10.43;;
19193;SDS011;9729;52.296;13.260;2024-03-06T12:53:16;18.47;;;9.60;;
19193;SDS011;9729;52.296;13.260;2024-03-06T12:55:42;14.00;;;9.77;;
19193;SDS011;9729;52.296;13.260;2024-03-06T12:58:10;15.97;;;9.70;;
19193;SDS011;9729;52.296;13.260;2024-03-06T13:00:37;12.07;;;9.73;;
19193;SDS011;9729;52.296;13.260;2024-03-06T13:03:03;12.90;;;9.53;;
19193;SDS011;9729;52.296;13.260;2024-03-06T13:05:30;17.97;;;10.07;;
19193;SDS011;9729;52.296;13.260;2024-03-06T13:07:58;19.77;;;10.83;;
19193;SDS011;9729;52.296;13.260;2024-03-06T13:10:25;15.33;;;10.53;;
19193;SDS011;9729;52.296;13.260;2024-03-06T13:12:52;15.83;;;11.53;;
19193;SDS011;9729;52.296;13.260;2024-03-06T13:15:18;15.73;;;12.20;;
19193;SDS011;9729;52.296;13.260;2024-03-06T13:17:44;16.37;;;12.03;;
19193;SDS011;9729;52.296;13.260;2024-03-06T13:20:11;17.00;;;12.90;;
19193;SDS011;9729;52.296;13.260;2024-03-06T13:22:37;17.33;;;12.27;;
19193;SDS011;9729;52.296;13.260;2024-03-06T13:25:06;15.63;;;11.87;;
19193;SDS011;9729;52.296;13.260;2024-03-06T13:27:32;14.50;;;10.20;;
19193;SDS011;9729;52.296;13.260;2024-03-06T13:29:59;23.73;;;14.37;;
19193;SDS011;9729;52.296;13.260;2024-03-06T13:32:25;20.73;;;13.33;;
19193;SDS011;9729;52.296;13.260;2024-03-06T13:34:52;21.30;;;14.17;;
19193;SDS011;9729;52.296;13.260;2024-03-06T13:37:18;29.27;;;15.90;;
19193;SDS011;9729;52.296;13.260;2024-03-06T13:39:47;26.40;;;17.20;;
19193;SDS011;9729;52.296;13.260;2024-03-06T13:42:15;23.40;;;14.70;;
19193;SDS011;9729;52.296;13.260;2024-03-06T13:44:41;27.17;;;16.00;;
19193;SDS011;9729;52.296;13.260;2024-03-06T13:47:07;19.80;;;14.17;;
19193;SDS011;9729;52.296;13.260;2024-03-06T13:49:41;22.50;;;14.47;;
19193;SDS011;9729;52.296;13.260;2024-03-06T13:52:08;19.17;;;14.77;;
19193;SDS011;9729;52.296;13.260;2024-03-06T13:54:35;20.47;;;14.97;;
19193;SDS011;9729;52.296;13.260;2024-03-06T13:57:04;21.40;;;16.93;;
19193;SDS011;9729;52.296;13.260;2024-03-06T13:59:32;19.63;;;13.83;;
19193;SDS011;9729;52.296;13.260;2024-03-06T14:01:58;22.03;;;14.13;;
19193;SDS011;9729;52.296;13.260;2024-03-06T14:04:25;20.80;;;13.37;;
19193;SDS011;9729;52.296;13.260;2024-03-06T14:06:51;17.70;;;11.83;;
19193;SDS011;9729;52.296;13.260;2024-03-06T14:09:18;13.77;;;10.97;;
19193;SDS011;9729;52.296;13.260;2024-03-06T14:11:44;22.73;;;14.10;;
19193;SDS011;9729;52.296;13.260;2024-03-06T14:14:10;21.27;;;13.53;;
19193;SDS011;9729;52.296;13.260;2024-03-06T14:16:38;25.23;;;13.20;;
19193;SDS011;9729;52.296;13.260;2024-03-06T14:19:07;21.50;;;14.10;;
19193;SDS011;9729;52.296;13.260;2024-03-06T14:21:33;19.93;;;13.10;;
19193;SDS011;9729;52.296;13.260;2024-03-06T14:24:00;16.23;;;13.27;;